Time;durP1;ratioP1;P1;durP2;ratioP2;P2;SDS_P1;SDS_P2;PMS_P1;PMS_P2;Temp;Humidity;BMP_temperature;BMP_pressure;BME280_temperature;BME280_humidity;BME280_pressure;Samples;Min_cycle;Max_cycle;Signal;HPM_P1;HPM_P2
2022/03/13 00:00:54;;;;;;;9.88;5.85;;;;;;;13.41;48.11;101451.13;5098643;28;20064;-59
2022/03/13 00:03:23;;;;;;;9.15;6.03;;;;;;;13.40;48.01;101455.69;5032345;28;20093;-59
2022/03/13 00:05:52;;;;;;;8.00;5.45;;;;;;;13.38;48.18;101454.28;5039139;28;20057;-60
2022/03/13 00:08:27;;;;;;;9.25;5.35;;;;;;;13.37;47.93;101458.03;5045434;28;20057;-59
2022/03/13 00:11:00;;;;;;;6.53;4.95;;;;;;;13.36;48.13;101454.50;5029290;28;20045;-58
2022/03/13 00:13:31;;;;;;;7.95;4.95;;;;;;;13.34;48.43;101454.72;5038701;28;20466;-58
2022/03/13 00:16:05;;;;;;;6.90;4.75;;;;;;;13.33;48.45;101452.25;5027401;28;20070;-58
2022/03/13 00:18:34;;;;;;;8.13;5.32;;;;;;;13.31;48.29;101447.06;5027684;28;20076;-59
2022/03/13 00:21:03;;;;;;;8.88;5.47;;;;;;;13.31;48.32;101446.25;5039920;28;20070;-59
2022/03/13 00:23:31;;;;;;;8.80;5.25;;;;;;;13.29;48.49;101441.06;5047942;28;20050;-58
2022/03/13 00:25:59;;;;;;;9.60;5.65;;;;;;;13.29;48.26;101435.69;5037896;28;20344;-59
2022/03/13 00:28:29;;;;;;;6.85;4.82;;;;;;;13.16;48.41;101405.28;5045857;28;20518;-58
2022/03/13 00:30:56;;;;;;;8.52;5.50;;;;;;;13.27;48.05;101418.06;5050189;28;20410;-58
2022/03/13 00:33:25;;;;;;;7.13;5.15;;;;;;;13.26;48.18;101413.72;5050968;28;20204;-58
2022/03/13 00:35:52;;;;;;;7.13;5.15;;;;;;;13.25;48.50;101415.59;5103625;28;20121;-59
2022/03/13 00:38:22;;;;;;;8.45;5.57;;;;;;;13.25;48.06;101417.47;5099853;28;20059;-59
2022/03/13 00:40:51;;;;;;;7.55;5.20;;;;;;;13.24;48.60;101421.19;5104903;28;20163;-59
2022/03/13 00:43:20;;;;;;;7.70;5.32;;;;;;;13.24;48.54;101427.44;5107762;28;20055;-59
2022/03/13 00:45:49;;;;;;;7.20;5.18;;;;;;;13.25;48.77;101420.97;5101605;28;20056;-59
2022/03/13 00:48:18;;;;;;;9.55;5.43;;;;;;;13.25;48.04;101423.69;5102796;28;20048;-61
2022/03/13 00:50:46;;;;;;;7.03;5.28;;;;;;;13.24;48.49;101416.63;5103124;28;20059;-58
2022/03/13 00:53:15;;;;;;;9.50;5.30;;;;;;;13.24;48.38;101413.09;5106651;28;20052;-59
2022/03/13 00:55:43;;;;;;;7.55;5.38;;;;;;;13.09;48.27;101397.25;5101677;28;20442;-60
2022/03/13 00:58:13;;;;;;;9.07;6.03;;;;;;;13.21;48.58;101411.69;5102607;28;20048;-60
2022/03/13 01:00:41;;;;;;;8.52;5.20;;;;;;;13.21;48.15;101411.69;5105279;28;20052;-60
2022/03/13 01:03:29;;;;;;;10.55;5.72;;;;;;;13.21;48.22;101408.97;5103946;28;20102;-60
2022/03/13 01:05:56;;;;;;;8.00;5.43;;;;;;;13.16;48.31;101398.03;5104903;28;20044;-60
2022/03/13 01:08:24;;;;;;;7.45;4.95;;;;;;;13.17;48.50;101409.66;5103000;28;20075;-60
2022/03/13 01:10:52;;;;;;;10.00;5.03;;;;;;;13.16;48.54;101399.88;5104708;28;20052;-60
2022/03/13 01:13:21;;;;;;;7.65;5.32;;;;;;;13.14;48.55;101394.72;5105384;28;20079;-60
2022/03/13 01:15:49;;;;;;;7.93;5.30;;;;;;;13.13;48.36;101387.66;5102040;28;20052;-59
2022/03/13 01:18:18;;;;;;;6.65;4.80;;;;;;;13.11;48.45;101380.84;5104805;28;20043;-59
2022/03/13 01:20:48;;;;;;;7.43;5.28;;;;;;;13.09;48.41;101374.84;5097892;28;20045;-58
2022/03/13 01:23:16;;;;;;;8.35;5.15;;;;;;;13.07;48.56;101383.16;5105780;28;20048;-59
2022/03/13 01:25:44;;;;;;;7.80;4.90;;;;;;;13.06;48.64;101378.81;5102077;28;20059;-59
2022/03/13 01:28:12;;;;;;;7.93;5.25;;;;;;;13.06;48.75;101386.09;5105622;28;20063;-59
2022/03/13 01:30:40;;;;;;;9.20;4.80;;;;;;;13.02;48.54;101378.44;5104227;28;20048;-58
2022/03/13 01:33:08;;;;;;;8.65;5.55;;;;;;;13.02;48.89;101374.91;5101977;28;20132;-58
2022/03/13 01:35:37;;;;;;;10.43;5.65;;;;;;;13.01;48.65;101375.97;5103046;28;20067;-58
2022/03/13 01:38:04;;;;;;;7.97;4.93;;;;;;;12.99;48.83;101370.78;5104283;28;20084;-58
2022/03/13 01:40:32;;;;;;;8.23;4.78;;;;;;;12.98;48.90;101361.06;5101596;28;20055;-59
2022/03/13 01:43:00;;;;;;;7.47;4.78;;;;;;;12.97;48.72;101353.19;5104052;28;20079;-59
2022/03/13 01:45:28;;;;;;;7.55;5.38;;;;;;;12.95;48.62;101348.00;5104305;28;20048;-59
2022/03/13 01:47:56;;;;;;;7.57;5.28;;;;;;;12.95;48.73;101352.59;5099788;28;20068;-59
2022/03/13 01:50:24;;;;;;;8.07;5.18;;;;;;;12.92;48.94;101359.25;5103881;28;20054;-59
2022/03/13 01:52:53;;;;;;;8.70;4.90;;;;;;;12.92;49.16;101350.34;5094765;28;20476;-59
2022/03/13 01:55:22;;;;;;;7.85;5.15;;;;;;;12.89;48.70;101354.31;5102427;28;20067;-59
2022/03/13 01:57:49;;;;;;;6.78;5.00;;;;;;;12.87;49.10;101356.41;5092111;28;20056;-57
2022/03/13 02:00:20;;;;;;;7.53;5.05;;;;;;;12.87;49.15;101350.19;5100399;28;20082;-58
2022/03/13 02:02:48;;;;;;;6.50;4.60;;;;;;;12.85;49.12;101345.00;5104754;28;20047;-58
2022/03/13 02:05:28;;;;;;;7.07;4.72;;;;;;;12.85;48.95;101353.09;5102194;28;20365;-59
2022/03/13 02:07:59;;;;;;;7.13;4.90;;;;;;;12.84;49.01;101351.47;5104614;28;20508;-59
2022/03/13 02:10:26;;;;;;;6.07;4.32;;;;;;;12.84;49.13;101348.75;5102269;28;20048;-59
2022/03/13 02:12:55;;;;;;;8.05;5.47;;;;;;;12.82;49.02;101345.47;5103434;28;20071;-59
2022/03/13 02:15:30;;;;;;;8.40;5.13;;;;;;;12.81;48.91;101329.50;5104087;28;20048;-59
2022/03/13 02:18:00;;;;;;;6.60;4.28;;;;;;;12.80;49.10;101325.16;5097335;28;20044;-59
2022/03/13 02:20:28;;;;;;;7.57;4.75;;;;;;;12.80;49.13;101338.66;5101570;28;20047;-59
2022/03/13 02:23:02;;;;;;;7.38;4.78;;;;;;;12.79;49.05;101335.13;5100861;28;20078;-59
2022/03/13 02:25:34;;;;;;;6.35;4.60;;;;;;;12.79;49.28;101337.00;5104406;28;20174;-58
2022/03/13 02:28:02;;;;;;;7.75;5.05;;;;;;;12.78;48.99;101340.75;5103547;28;20052;-58
2022/03/13 02:30:30;;;;;;;6.30;4.53;;;;;;;12.77;48.90;101339.91;5101990;28;20063;-58
2022/03/13 02:32:58;;;;;;;7.13;4.40;;;;;;;12.76;49.09;101337.44;5099323;28;20075;-58
2022/03/13 02:35:29;;;;;;;8.52;4.53;;;;;;;12.67;48.97;101323.44;5103300;28;20044;-59
2022/03/13 02:37:57;;;;;;;6.63;4.70;;;;;;;12.73;49.33;101338.72;5103540;28;20052;-59
2022/03/13 02:40:28;;;;;;;9.00;4.47;;;;;;;12.73;49.06;101336.03;5101252;28;20158;-59
2022/03/13 02:42:57;;;;;;;7.95;4.95;;;;;;;12.72;49.48;101337.06;5091413;28;20313;-59
2022/03/13 02:45:31;;;;;;;7.18;4.97;;;;;;;12.69;49.04;101330.25;5101901;28;20080;-59
2022/03/13 02:48:01;;;;;;;7.38;4.93;;;;;;;12.68;49.30;101330.47;5096534;28;20090;-58
2022/03/13 02:50:29;;;;;;;7.60;5.30;;;;;;;12.68;49.50;101338.56;5101289;28;20103;-59
2022/03/13 02:52:57;;;;;;;9.35;5.95;;;;;;;12.66;49.43;101327.19;5096689;28;20048;-58
2022/03/13 02:55:25;;;;;;;8.02;5.50;;;;;;;12.65;49.78;101320.13;5103780;28;20082;-59
2022/03/13 02:57:54;;;;;;;7.63;5.32;;;;;;;12.57;49.83;101305.06;5102658;28;20059;-59
2022/03/13 03:00:39;;;;;;;7.80;4.95;;;;;;;12.62;49.89;101315.19;5102554;28;20044;-59
2022/03/13 03:03:07;;;;;;;8.27;5.60;;;;;;;12.60;49.72;101320.81;5096887;28;20048;-58
2022/03/13 03:05:37;;;;;;;7.90;5.65;;;;;;;12.60;50.01;101315.41;5102698;28;20048;-58
2022/03/13 03:08:05;;;;;;;8.55;5.50;;;;;;;12.58;49.90;101314.00;5100306;28;20070;-58
2022/03/13 03:10:34;;;;;;;13.30;5.90;;;;;;;12.57;49.90;101313.16;5102531;28;20120;-60
2022/03/13 03:13:04;;;;;;;9.35;5.53;;;;;;;12.54;50.08;101310.09;5101952;28;20107;-59
2022/03/13 03:15:32;;;;;;;9.25;5.95;;;;;;;12.54;50.38;101312.78;5103296;28;20181;-59
2022/03/13 03:18:00;;;;;;;8.57;5.72;;;;;;;12.53;50.33;101311.13;5101367;28;20056;-58
2022/03/13 03:20:28;;;;;;;8.77;5.90;;;;;;;12.52;50.47;101312.19;5102718;28;20079;-58
2022/03/13 03:22:56;;;;;;;8.90;6.28;;;;;;;12.50;50.37;101301.63;5103188;28;20047;-59
2022/03/13 03:25:27;;;;;;;10.35;7.07;;;;;;;12.46;50.30;101294.22;5095662;28;20052;-58
2022/03/13 03:27:57;;;;;;;9.43;6.13;;;;;;;12.49;50.53;101299.16;5096025;28;20516;-57
2022/03/13 03:30:28;;;;;;;10.65;6.95;;;;;;;12.47;50.85;101303.94;5102808;28;20056;-59
2022/03/13 03:32:58;;;;;;;9.63;6.30;;;;;;;12.46;50.34;101295.03;5101467;28;20531;-58
2022/03/13 03:35:26;;;;;;;11.43;7.20;;;;;;;12.45;50.71;101304.16;5102305;28;20052;-60
2022/03/13 03:37:56;;;;;;;10.38;6.13;;;;;;;12.44;50.91;101299.00;5102170;28;20149;-59
2022/03/13 03:40:27;;;;;;;9.90;6.88;;;;;;;12.39;51.04;101305.88;5093150;28;20061;-58
2022/03/13 03:42:56;;;;;;;10.40;7.22;;;;;;;12.42;51.10;101296.53;5102089;28;20072;-59
2022/03/13 03:45:24;;;;;;;12.48;7.20;;;;;;;12.42;51.08;101299.22;5101865;28;20047;-59
2022/03/13 03:47:53;;;;;;;11.73;7.00;;;;;;;12.42;50.97;101298.41;5099010;28;20056;-59
2022/03/13 03:50:21;;;;;;;11.32;7.72;;;;;;;12.41;50.91;101300.25;5097564;28;20055;-58
2022/03/13 03:52:50;;;;;;;10.43;6.68;;;;;;;12.41;51.13;101302.97;5103130;28;20107;-58
2022/03/13 03:55:18;;;;;;;11.73;7.40;;;;;;;12.39;51.19;101299.66;5095483;28;20076;-59
2022/03/13 03:57:46;;;;;;;10.02;6.60;;;;;;;12.36;51.20;101290.16;5097997;28;20080;-59
2022/03/13 04:00:15;;;;;;;9.00;6.47;;;;;;;12.38;51.00;101292.63;5104676;28;20088;-59
2022/03/13 04:02:43;;;;;;;11.52;7.50;;;;;;;12.36;51.16;101298.25;5106234;28;20047;-59
2022/03/13 04:05:13;;;;;;;10.68;7.30;;;;;;;12.36;51.26;101290.16;5106647;28;20044;-59
2022/03/13 04:07:40;;;;;;;9.95;7.18;;;;;;;12.35;51.39;101285.81;5104860;28;20055;-59
2022/03/13 04:10:13;;;;;;;9.88;7.07;;;;;;;12.34;51.10;101288.72;5106634;28;20044;-59
2022/03/13 04:12:41;;;;;;;10.00;7.45;;;;;;;12.33;51.11;101284.38;5098173;28;20532;-59
2022/03/13 04:15:09;;;;;;;10.18;6.90;;;;;;;12.32;51.29;101288.13;5106097;28;20048;-59
2022/03/13 04:17:37;;;;;;;10.68;7.22;;;;;;;12.30;51.41;101291.03;5104595;28;20067;-59
2022/03/13 04:20:06;;;;;;;11.30;7.53;;;;;;;12.29;51.32;101283.19;5105850;28;20406;-59
2022/03/13 04:22:35;;;;;;;10.20;7.05;;;;;;;12.28;51.38;101285.03;5105663;28;20048;-59
2022/03/13 04:25:03;;;;;;;11.05;7.05;;;;;;;12.27;51.47;101287.97;5097694;28;20110;-59
2022/03/13 04:27:31;;;;;;;12.05;7.57;;;;;;;12.25;51.34;101287.34;5097784;28;20120;-59
2022/03/13 04:29:59;;;;;;;11.65;8.90;;;;;;;12.24;51.39;101291.94;5104902;28;20536;-59
2022/03/13 04:32:27;;;;;;;9.68;7.10;;;;;;;12.22;51.55;101288.63;5105829;28;20385;-59
2022/03/13 04:34:55;;;;;;;10.85;8.18;;;;;;;12.22;51.74;101290.50;5098924;28;20138;-59
2022/03/13 04:37:23;;;;;;;11.35;7.43;;;;;;;12.20;51.67;101285.34;5104960;28;20079;-60
2022/03/13 04:39:52;;;;;;;12.85;9.05;;;;;;;12.19;51.83;101288.25;5105507;28;20117;-59
2022/03/13 04:42:20;;;;;;;12.48;8.65;;;;;;;12.14;51.81;101278.13;5104824;28;20071;-58
2022/03/13 04:44:48;;;;;;;12.05;8.60;;;;;;;12.16;52.14;101278.75;5105164;28;20184;-58
2022/03/13 04:47:15;;;;;;;13.93;8.40;;;;;;;12.15;51.96;101278.97;5105493;28;20074;-58
2022/03/13 04:49:43;;;;;;;13.82;8.18;;;;;;;12.14;52.26;101286.22;5104412;28;20056;-58
2022/03/13 04:52:14;;;;;;;12.98;8.98;;;;;;;12.13;52.14;101286.47;5105000;28;20072;-59
2022/03/13 04:54:42;;;;;;;15.52;8.80;;;;;;;12.10;52.28;101285.03;5105468;28;20138;-58
2022/03/13 04:57:12;;;;;;;13.60;8.88;;;;;;;12.10;52.33;101286.91;5105468;28;20079;-59
2022/03/13 04:59:40;;;;;;;12.60;9.10;;;;;;;12.08;52.49;101286.31;5097243;28;20079;-58
2022/03/13 05:02:08;;;;;;;13.60;9.25;;;;;;;12.08;52.42;101294.38;5098919;28;20087;-59
2022/03/13 05:04:35;;;;;;;15.75;9.38;;;;;;;12.06;52.66;101286.53;5102701;28;20052;-59
2022/03/13 05:07:04;;;;;;;11.60;8.27;;;;;;;12.05;52.53;101279.50;5105582;28;20079;-58
2022/03/13 05:09:32;;;;;;;12.90;8.60;;;;;;;12.04;52.53;101280.53;5101147;28;20082;-59
2022/03/13 05:12:04;;;;;;;13.27;8.85;;;;;;;12.05;52.42;101284.88;5103607;28;20079;-59
2022/03/13 05:14:33;;;;;;;14.13;9.07;;;;;;;12.04;52.70;101283.22;5104898;28;20084;-59
2022/03/13 05:17:00;;;;;;;13.27;8.50;;;;;;;12.03;52.34;101278.88;5100200;28;20152;-58
2022/03/13 05:19:28;;;;;;;15.77;9.18;;;;;;;12.02;52.43;101278.06;5104595;28;20132;-59
2022/03/13 05:21:56;;;;;;;13.00;9.00;;;;;;;12.02;52.41;101274.53;5105148;28;20147;-58
2022/03/13 05:24:24;;;;;;;14.18;9.48;;;;;;;11.97;52.31;101277.91;5103017;28;20071;-59
2022/03/13 05:26:52;;;;;;;15.07;9.30;;;;;;;12.00;52.28;101276.63;5103525;28;20055;-59
2022/03/13 05:29:20;;;;;;;13.85;9.07;;;;;;;11.97;52.38;101280.59;5103642;28;20040;-59
2022/03/13 05:31:49;;;;;;;12.80;9.18;;;;;;;11.98;52.37;101281.41;5101661;28;20115;-59
2022/03/13 05:34:16;;;;;;;13.65;9.23;;;;;;;11.97;52.17;101279.78;5100990;28;20067;-58
2022/03/13 05:36:44;;;;;;;12.38;9.13;;;;;;;11.96;52.32;101287.03;5104150;28;20071;-59
2022/03/13 05:39:12;;;;;;;10.93;8.35;;;;;;;11.95;52.26;101282.69;5104167;28;20083;-59
2022/03/13 05:41:40;;;;;;;13.45;8.95;;;;;;;11.94;52.31;101281.03;5102604;28;20059;-58
2022/03/13 05:44:09;;;;;;;13.15;9.57;;;;;;;11.92;52.25;101280.44;5104402;28;20048;-59
2022/03/13 05:46:37;;;;;;;13.70;8.68;;;;;;;11.92;52.37;101282.31;5103368;28;20044;-58
2022/03/13 05:49:08;;;;;;;14.82;8.90;;;;;;;11.86;52.40;101270.53;5103413;28;20048;-60
2022/03/13 05:51:37;;;;;;;14.25;8.75;;;;;;;11.89;52.25;101288.13;5103027;28;20059;-59
2022/03/13 05:54:05;;;;;;;14.10;8.98;;;;;;;11.86;52.40;101284.00;5095843;28;20036;-59
2022/03/13 05:56:33;;;;;;;12.65;9.43;;;;;;;11.86;52.24;101285.88;5102756;28;20094;-59
2022/03/13 05:59:01;;;;;;;15.02;9.10;;;;;;;11.84;52.28;101282.56;5100883;28;20091;-59
2022/03/13 06:01:29;;;;;;;18.02;9.65;;;;;;;11.83;52.59;101283.63;5103920;28;20158;-58
2022/03/13 06:04:00;;;;;;;12.68;9.13;;;;;;;11.80;52.41;101290.25;5104356;28;20040;-59
2022/03/13 06:06:31;;;;;;;12.50;7.97;;;;;;;11.82;52.34;101284.66;5100452;28;20048;-59
2022/03/13 06:08:59;;;;;;;11.82;8.35;;;;;;;11.79;52.45;101291.31;5101606;28;20076;-59
2022/03/13 06:11:26;;;;;;;14.73;9.15;;;;;;;11.79;52.35;101288.63;5103461;28;20075;-58
2022/03/13 06:13:54;;;;;;;12.20;8.73;;;;;;;11.77;52.36;101293.41;5104402;28;20047;-58
2022/03/13 06:16:24;;;;;;;13.25;9.55;;;;;;;11.77;52.25;101284.47;5093981;28;20052;-59
2022/03/13 06:18:52;;;;;;;10.73;7.95;;;;;;;11.76;52.12;101288.19;5102541;28;20048;-59
2022/03/13 06:21:19;;;;;;;11.43;8.48;;;;;;;11.74;52.15;101283.84;5102057;28;20066;-58
2022/03/13 06:23:48;;;;;;;12.25;8.45;;;;;;;11.73;52.22;101284.06;5099779;28;20098;-61
2022/03/13 06:26:16;;;;;;;13.00;9.13;;;;;;;11.73;52.03;101292.97;5102650;28;20043;-59
2022/03/13 06:28:44;;;;;;;12.07;8.55;;;;;;;11.72;51.97;101287.81;5102547;28;20107;-59
2022/03/13 06:31:12;;;;;;;12.68;8.00;;;;;;;11.70;51.97;101292.59;5093545;28;20052;-60
2022/03/13 06:33:39;;;;;;;13.70;7.93;;;;;;;11.69;51.98;101299.84;5101125;28;20067;-59
2022/03/13 06:36:07;;;;;;;13.60;8.35;;;;;;;11.69;51.89;101296.31;5100753;28;20048;-59
2022/03/13 06:38:35;;;;;;;14.55;8.73;;;;;;;11.67;51.81;101299.22;5102989;28;20052;-59
2022/03/13 06:41:05;;;;;;;11.32;8.20;;;;;;;11.67;51.86;101301.09;5101388;28;20048;-58
2022/03/13 06:43:33;;;;;;;9.90;7.50;;;;;;;11.64;51.63;101296.16;5103598;28;20079;-57
2022/03/13 06:46:00;;;;;;;12.57;8.80;;;;;;;11.66;51.88;101304.84;5094462;28;20076;-61
2022/03/13 06:48:28;;;;;;;11.35;7.50;;;;;;;11.64;51.93;101298.84;5103919;28;20135;-60
2022/03/13 06:50:56;;;;;;;13.10;8.82;;;;;;;11.64;51.75;101298.84;5101506;28;20040;-60
2022/03/13 06:53:24;;;;;;;13.32;7.97;;;;;;;11.63;51.66;101295.31;5103565;28;20493;-60
2022/03/13 06:55:52;;;;;;;18.88;8.20;;;;;;;11.63;51.63;101297.19;5101416;28;20040;-60
2022/03/13 06:58:22;;;;;;;12.45;7.90;;;;;;;11.62;51.63;101290.16;5103583;28;20072;-60
2022/03/13 07:00:50;;;;;;;11.30;7.60;;;;;;;11.61;51.70;101291.19;5094226;28;20083;-60
2022/03/13 07:03:17;;;;;;;10.32;8.00;;;;;;;11.59;51.62;101298.66;5101621;28;20048;-60
2022/03/13 07:05:46;;;;;;;11.07;7.43;;;;;;;11.60;51.59;101306.53;5101158;28;20036;-59
2022/03/13 07:08:14;;;;;;;12.02;7.93;;;;;;;11.61;51.31;101305.50;5094175;28;20507;-58
2022/03/13 07:10:42;;;;;;;18.52;8.27;;;;;;;11.62;51.62;101300.94;5101002;28;20052;-61
2022/03/13 07:13:11;;;;;;;16.38;8.32;;;;;;;11.60;51.68;101303.00;5099685;28;20066;-59
2022/03/13 07:15:41;;;;;;;14.02;7.93;;;;;;;11.60;51.45;101297.63;4740654;28;10000411;-58
2022/03/13 07:18:08;;;;;;;12.18;7.13;;;;;;;11.58;51.63;101292.47;5094795;28;20044;-59
2022/03/13 07:20:36;;;;;;;13.45;8.20;;;;;;;11.58;51.71;101288.94;5098015;28;20164;-59
2022/03/13 07:23:04;;;;;;;12.13;8.07;;;;;;;11.58;51.74;101288.94;5098063;28;20055;-58
2022/03/13 07:25:32;;;;;;;12.13;7.47;;;;;;;11.57;51.59;101284.59;5097337;28;20071;-59
2022/03/13 07:27:59;;;;;;;11.40;7.75;;;;;;;11.55;51.67;101287.50;5093665;28;20094;-58
2022/03/13 07:30:27;;;;;;;15.80;9.05;;;;;;;11.53;51.70;101284.22;5099349;28;20087;-60
2022/03/13 07:32:56;;;;;;;13.02;8.25;;;;;;;11.53;51.80;101291.47;5099301;28;20117;-59
2022/03/13 07:35:24;;;;;;;12.13;8.40;;;;;;;11.39;51.75;101258.44;5101211;28;20071;-60
2022/03/13 07:37:52;;;;;;;11.70;8.77;;;;;;;11.53;51.66;101294.16;5099078;28;20571;-60
2022/03/13 07:40:20;;;;;;;9.43;7.22;;;;;;;11.52;51.70;101287.13;5092994;28;20052;-59
2022/03/13 07:42:48;;;;;;;15.10;9.50;;;;;;;11.51;51.76;101288.16;5101161;28;20048;-59
2022/03/13 07:45:16;;;;;;;11.23;7.45;;;;;;;11.51;51.59;101289.00;5096315;28;20592;-58
2022/03/13 07:47:47;;;;;;;10.68;7.57;;;;;;;11.50;51.64;101290.03;5101603;28;20070;-58
2022/03/13 07:50:17;;;;;;;12.73;7.97;;;;;;;11.44;51.75;101279.31;5102632;28;20170;-58
2022/03/13 07:52:44;;;;;;;11.50;8.25;;;;;;;11.49;51.72;101283.00;5098602;28;20060;-59
2022/03/13 07:55:14;;;;;;;12.48;7.80;;;;;;;11.48;51.56;101286.72;5103773;28;20248;-59
2022/03/13 07:57:41;;;;;;;10.52;7.75;;;;;;;11.49;51.60;101290.25;5102531;28;20078;-59
2022/03/13 08:00:12;;;;;;;15.20;7.70;;;;;;;11.47;51.45;101285.09;5094170;28;20095;-59
2022/03/13 08:02:44;;;;;;;12.93;8.40;;;;;;;11.47;51.53;101287.78;5097992;28;20082;-59
2022/03/13 08:05:12;;;;;;;14.13;7.50;;;;;;;11.48;51.58;101288.59;5091900;28;20044;-60
2022/03/13 08:07:42;;;;;;;10.15;7.35;;;;;;;11.44;51.50;101282.81;5103709;28;20048;-59
2022/03/13 08:10:10;;;;;;;11.60;7.90;;;;;;;11.46;51.59;101280.75;5102341;28;20078;-60
2022/03/13 08:12:39;;;;;;;12.25;8.30;;;;;;;11.46;51.72;101280.75;5098170;28;20047;-58
2022/03/13 08:15:08;;;;;;;10.32;7.22;;;;;;;11.47;51.37;101284.25;5102226;28;20052;-58
2022/03/13 08:17:36;;;;;;;11.77;8.15;;;;;;;11.46;51.65;101280.75;5099862;28;20056;-58
2022/03/13 08:20:05;;;;;;;11.52;7.88;;;;;;;11.47;51.61;101277.00;5102430;28;20089;-59
2022/03/13 08:22:33;;;;;;;11.90;7.80;;;;;;;11.48;51.46;101275.97;5099556;28;20052;-58
2022/03/13 08:25:02;;;;;;;11.35;7.55;;;;;;;11.49;51.52;101276.78;5102462;28;20595;-58
2022/03/13 08:27:30;;;;;;;13.13;7.75;;;;;;;11.50;51.39;101278.44;5101761;28;20047;-59
2022/03/13 08:29:58;;;;;;;11.88;8.10;;;;;;;11.50;51.51;101271.19;5101936;28;20139;-59
2022/03/13 08:32:26;;;;;;;11.98;7.53;;;;;;;11.51;51.65;101280.91;5099891;28;20083;-59
2022/03/13 08:34:54;;;;;;;12.43;7.85;;;;;;;11.51;51.38;101280.91;5097582;28;20147;-59
2022/03/13 08:37:22;;;;;;;12.32;8.25;;;;;;;11.53;51.46;101281.53;5101560;28;20051;-58
2022/03/13 08:39:50;;;;;;;12.70;7.78;;;;;;;11.55;51.47;101282.13;5093670;28;20133;-59
2022/03/13 08:42:19;;;;;;;11.02;7.45;;;;;;;11.59;51.43;101290.59;5100511;28;20097;-57
2022/03/13 08:44:46;;;;;;;13.23;6.85;;;;;;;11.61;51.69;101283.94;5101671;28;20051;-59
2022/03/13 08:47:14;;;;;;;11.55;7.53;;;;;;;11.61;51.67;101277.75;5101849;28;20123;-60
2022/03/13 08:49:42;;;;;;;9.77;7.07;;;;;;;11.62;51.82;101277.53;5095280;28;20120;-59
2022/03/13 08:52:10;;;;;;;10.45;7.47;;;;;;;11.63;51.70;101278.34;5099786;28;20059;-59
2022/03/13 08:54:37;;;;;;;15.27;7.10;;;;;;;11.63;51.68;101275.66;5102083;28;20082;-59
2022/03/13 08:57:05;;;;;;;11.00;7.88;;;;;;;11.65;51.94;101271.69;5101916;28;20044;-57
2022/03/13 08:59:37;;;;;;;10.75;7.82;;;;;;;11.57;51.84;101253.13;5095050;28;20048;-59
2022/03/13 09:02:06;;;;;;;13.45;7.20;;;;;;;11.69;52.09;101255.94;5088514;28;20079;-59
2022/03/13 09:04:34;;;;;;;8.88;6.63;;;;;;;11.71;51.94;101260.06;5101122;28;20059;-59
2022/03/13 09:07:01;;;;;;;11.32;6.93;;;;;;;11.72;51.90;101267.09;5102103;28;20072;-59
2022/03/13 09:09:29;;;;;;;10.25;6.75;;;;;;;11.73;51.85;101263.34;5099693;28;20076;-59
2022/03/13 09:11:58;;;;;;;12.10;7.03;;;;;;;11.74;52.05;101264.19;5099748;28;20079;-59
2022/03/13 09:14:26;;;;;;;12.18;7.80;;;;;;;11.76;51.99;101255.88;4747314;28;9999856;-58
2022/03/13 09:16:55;;;;;;;12.38;6.70;;;;;;;11.78;52.05;101260.03;5104799;28;20039;-59
2022/03/13 09:19:22;;;;;;;10.30;6.97;;;;;;;11.79;52.22;101252.78;5103000;28;20077;-59
2022/03/13 09:21:50;;;;;;;13.70;7.32;;;;;;;11.81;52.20;101256.91;5103053;28;20082;-58
2022/03/13 09:24:18;;;;;;;11.40;8.32;;;;;;;11.82;52.11;101252.34;5104729;28;20075;-58
2022/03/13 09:26:46;;;;;;;14.40;7.53;;;;;;;11.84;52.54;101244.88;5105181;28;20071;-59
2022/03/13 09:29:14;;;;;;;10.57;7.63;;;;;;;11.86;52.58;101251.69;5102449;28;20043;-59
2022/03/13 09:31:41;;;;;;;11.43;7.65;;;;;;;12.11;52.27;101253.53;5105857;28;20083;-59
2022/03/13 09:34:11;;;;;;;12.68;7.60;;;;;;;12.01;52.44;101257.56;5101432;28;20074;-60
2022/03/13 09:36:42;;;;;;;10.23;6.97;;;;;;;12.01;52.59;101257.56;5102990;28;20044;-60
2022/03/13 09:39:10;;;;;;;11.43;7.63;;;;;;;12.12;52.46;101255.19;5104127;28;20071;-59
2022/03/13 09:41:38;;;;;;;11.05;7.65;;;;;;;12.07;52.63;101261.25;5093970;28;20071;-59
2022/03/13 09:44:08;;;;;;;11.02;7.85;;;;;;;12.07;52.51;101257.72;5102599;28;20040;-59
2022/03/13 09:46:36;;;;;;;13.32;7.57;;;;;;;12.07;52.83;101257.72;5104612;28;20598;-59
2022/03/13 09:49:05;;;;;;;10.27;7.47;;;;;;;12.10;52.79;101257.28;5104905;28;20079;-60
2022/03/13 09:51:34;;;;;;;13.43;8.20;;;;;;;12.30;52.83;101253.31;5102876;28;20082;-59
2022/03/13 09:54:02;;;;;;;11.30;7.13;;;;;;;12.24;53.08;101250.69;5099437;28;20079;-60
2022/03/13 09:56:30;;;;;;;10.35;6.43;;;;;;;12.51;53.03;101245.84;5102620;28;20067;-59
2022/03/13 09:58:57;;;;;;;10.60;6.65;;;;;;;12.38;53.17;101249.50;5103986;28;20493;-58
2022/03/13 10:01:25;;;;;;;11.82;6.93;;;;;;;12.58;52.50;101247.41;5097802;28;20115;-60
2022/03/13 10:03:54;;;;;;;8.18;5.80;;;;;;;12.63;52.46;101246.72;5104800;28;20374;-59
2022/03/13 10:06:22;;;;;;;11.85;6.82;;;;;;;12.49;52.78;101240.66;5104247;28;20055;-60
2022/03/13 10:08:51;;;;;;;11.73;7.03;;;;;;;12.38;52.88;101238.72;5096395;28;20044;-60
2022/03/13 10:11:31;;;;;;;11.23;6.82;;;;;;;12.37;52.81;101243.28;5104704;28;20072;-59
2022/03/13 10:14:07;;;;;;;11.32;6.90;;;;;;;12.36;52.73;101240.81;5102664;28;20055;-60
2022/03/13 10:16:38;;;;;;;9.77;6.32;;;;;;;12.39;53.26;101237.66;5104456;28;20513;-59
2022/03/13 10:19:16;;;;;;;13.18;6.45;;;;;;;12.38;53.22;101233.31;5103422;28;20048;-60
2022/03/13 10:22:05;;;;;;;13.73;7.32;;;;;;;12.43;54.15;101233.47;5104479;28;20084;-59
2022/03/13 10:24:42;;;;;;;9.70;6.15;;;;;;;12.50;53.21;101223.44;5098028;28;20124;-59
2022/03/13 10:27:14;;;;;;;;;;;;;;;12.49;53.12;101224.50;5103840;28;20078;-59
2022/03/13 10:29:42;;;;;;;8.77;6.00;;;;;;;12.50;53.27;101220.75;5098367;28;19955;-59
2022/03/13 10:32:10;;;;;;;8.80;6.30;;;;;;;12.57;53.28;101220.66;5101616;28;20048;-59
2022/03/13 10:34:38;;;;;;;13.13;6.68;;;;;;;12.56;53.12;101213.63;5103416;28;20058;-60
2022/03/13 10:37:06;;;;;;;10.40;6.85;;;;;;;12.57;53.22;101215.28;5094637;28;20071;-59
2022/03/13 10:39:35;;;;;;;10.25;6.70;;;;;;;12.58;53.32;101209.66;5102937;28;20090;-58
2022/03/13 10:42:04;;;;;;;8.23;5.72;;;;;;;12.59;53.41;101211.31;5102651;28;20067;-59
2022/03/13 10:44:35;;;;;;;7.40;5.10;;;;;;;12.62;54.42;101201.94;5089819;28;20076;-60
2022/03/13 10:47:05;;;;;;;9.32;5.97;;;;;;;12.66;53.56;101208.53;5104076;28;20089;-60
2022/03/13 10:49:40;;;;;;;9.10;6.18;;;;;;;12.71;53.80;101205.97;5100705;28;20036;-59
2022/03/13 10:52:25;;;;;;;8.20;5.15;;;;;;;12.76;53.75;101203.41;4742512;28;9999951;-60
2022/03/13 10:54:54;;;;;;;8.52;5.75;;;;;;;12.79;53.52;101202.97;5093465;28;20087;-60
2022/03/13 10:57:23;;;;;;;9.85;5.65;;;;;;;12.83;53.83;101198.75;5098050;28;20075;-58
2022/03/13 11:00:09;;;;;;;7.95;5.05;;;;;;;12.87;53.61;101201.81;5087256;28;20162;-58
2022/03/13 11:02:36;;;;;;;8.30;5.25;;;;;;;12.90;53.26;101193.28;5098635;28;20485;-58
2022/03/13 11:05:05;;;;;;;8.25;5.70;;;;;;;12.93;53.48;101195.50;5099435;28;20048;-58
2022/03/13 11:07:34;;;;;;;7.35;5.15;;;;;;;12.95;53.38;101188.84;5091423;28;20048;-58
2022/03/13 11:10:03;;;;;;;7.63;5.35;;;;;;;12.97;53.54;101184.03;5097993;28;20075;-58
2022/03/13 11:12:34;;;;;;;8.23;4.95;;;;;;;13.03;54.21;101179.59;5098196;28;20048;-59
2022/03/13 11:15:03;;;;;;;8.30;5.43;;;;;;;13.03;53.16;101185.81;5097349;28;20074;-58
2022/03/13 11:17:32;;;;;;;10.60;5.68;;;;;;;13.04;53.63;101183.94;5101146;28;20044;-59
2022/03/13 11:20:01;;;;;;;8.43;5.90;;;;;;;13.07;53.67;101180.78;5094948;28;20059;-60
2022/03/13 11:22:30;;;;;;;9.00;5.72;;;;;;;13.10;53.41;101182.19;5098151;28;20078;-60
2022/03/13 11:25:02;;;;;;;7.18;4.60;;;;;;;13.15;53.57;101188.56;5098330;28;20079;-59
2022/03/13 11:27:31;;;;;;;8.73;5.28;;;;;;;13.26;54.12;101181.56;5097983;28;20072;-59